Time;durP1;ratioP1;P1;durP2;ratioP2;P2;SDS_P1;SDS_P2;PMS_P1;PMS_P2;Temp;Humidity;BMP_temperature;BMP_pressure;BME280_temperature;BME280_humidity;BME280_pressure;Samples;Min_cycle;Max_cycle;Signal;HPM_P1;HPM_P2
2021/12/01 00:01:19;;;;;;;2.47;0.43;;;25.90;99.90;;;;;;5020054;28;20022;-68
2021/12/01 00:03:46;;;;;;;3.08;0.50;;;25.80;99.90;;;;;;5020211;28;20494;-66
2021/12/01 00:06:14;;;;;;;2.80;0.47;;;25.80;99.90;;;;;;5021133;28;20116;-67
2021/12/01 00:08:41;;;;;;;3.20;0.32;;;25.80;99.90;;;;;;5039899;28;20032;-67
2021/12/01 00:11:08;;;;;;;3.50;0.60;;;25.90;99.90;;;;;;5038011;28;20025;-66
2021/12/01 00:13:36;;;;;;;1.45;0.52;;;25.90;99.90;;;;;;5039935;28;20025;-67
2021/12/01 00:16:06;;;;;;;3.33;0.50;;;26.00;99.90;;;;;;5030380;28;20037;-66
2021/12/01 00:18:33;;;;;;;2.88;0.40;;;25.90;99.90;;;;;;5019659;28;20018;-68
2021/12/01 00:21:00;;;;;;;1.55;0.40;;;25.90;99.90;;;;;;5016930;28;20031;-67
2021/12/01 00:23:28;;;;;;;3.35;0.90;;;26.00;99.90;;;;;;5018874;28;20065;-65
2021/12/01 00:25:56;;;;;;;2.20;0.57;;;26.00;99.90;;;;;;5018552;28;20343;-67
2021/12/01 00:28:24;;;;;;;1.35;0.63;;;25.80;99.90;;;;;;5019137;28;20442;-66
2021/12/01 00:30:52;;;;;;;1.85;0.43;;;25.80;99.90;;;;;;5019511;28;20080;-68
2021/12/01 00:33:23;;;;;;;4.20;0.77;;;25.90;99.90;;;;;;5019078;28;20075;-66
2021/12/01 00:35:56;;;;;;;1.50;0.50;;;25.90;99.90;;;;;;5019351;28;20398;-70
2021/12/01 00:38:25;;;;;;;2.67;0.85;;;25.80;99.90;;;;;;5019074;28;20844;-66
2021/12/01 00:40:53;;;;;;;4.72;0.50;;;25.90;99.90;;;;;;5019313;28;20057;-68
2021/12/01 00:43:24;;;;;;;4.78;0.80;;;25.90;99.90;;;;;;5018706;28;20029;-67
2021/12/01 00:45:58;;;;;;;1.67;0.38;;;25.90;99.90;;;;;;5019396;28;20033;-71
2021/12/01 00:48:26;;;;;;;2.47;0.50;;;25.90;99.90;;;;;;5018953;28;20501;-67
2021/12/01 00:50:55;;;;;;;3.25;0.73;;;25.80;99.90;;;;;;5018361;28;20079;-68
2021/12/01 00:53:22;;;;;;;1.83;0.38;;;25.90;99.90;;;;;;5018915;28;20025;-69
2021/12/01 00:55:50;;;;;;;5.50;0.80;;;26.00;99.90;;;;;;5019390;28;20033;-67
2021/12/01 00:58:17;;;;;;;1.30;0.45;;;26.10;99.90;;;;;;5016789;28;20033;-66
2021/12/01 01:00:48;;;;;;;4.30;0.57;;;26.20;99.90;;;;;;5018856;28;20028;-66
2021/12/01 01:03:18;;;;;;;2.28;0.55;;;26.50;99.90;;;;;;5016677;28;20040;-66
2021/12/01 01:05:45;;;;;;;1.15;0.50;;;26.70;99.90;;;;;;5018263;28;20033;-66
2021/12/01 01:08:15;;;;;;;1.75;0.60;;;26.90;99.90;;;;;;5016842;28;20813;-65
2021/12/01 01:18:47;;;;;;;3.67;0.70;;;27.20;99.90;;;;;;5018427;28;20825;-65
2021/12/01 01:21:15;;;;;;;1.52;0.60;;;27.30;99.90;;;;;;5016779;28;20383;-66
2021/12/01 01:23:43;;;;;;;2.92;0.70;;;27.30;99.90;;;;;;5018277;28;20029;-65
2021/12/01 01:26:14;;;;;;;1.50;0.50;;;27.30;99.90;;;;;;5016964;28;20478;-66
2021/12/01 01:28:42;;;;;;;4.93;0.55;;;27.30;99.90;;;;;;5018581;28;20060;-65
2021/12/01 01:31:10;;;;;;;1.48;0.30;;;27.30;99.90;;;;;;5017087;28;20109;-65
2021/12/01 01:33:38;;;;;;;2.00;0.50;;;27.40;99.60;;;;;;5017710;28;20017;-68
2021/12/01 01:36:05;;;;;;;1.08;0.35;;;27.60;99.50;;;;;;5017524;28;20044;-67
2021/12/01 01:38:33;;;;;;;0.85;0.40;;;27.60;98.80;;;;;;5017978;28;20060;-65
2021/12/01 01:41:02;;;;;;;2.13;0.55;;;27.70;97.90;;;;;;5019251;28;20037;-65
2021/12/01 01:43:29;;;;;;;1.45;0.50;;;27.80;99.00;;;;;;5017774;28;20021;-66
2021/12/01 01:45:58;;;;;;;1.75;0.68;;;27.90;98.30;;;;;;5021559;28;20017;-67
2021/12/01 01:48:32;;;;;;;1.35;0.60;;;28.00;99.30;;;;;;5015497;28;20108;-65
2021/12/01 01:51:03;;;;;;;2.97;0.90;;;28.10;98.80;;;;;;5024314;28;20036;-65
2021/12/01 01:53:33;;;;;;;0.80;0.43;;;28.10;98.00;;;;;;5037462;28;20017;-66
2021/12/01 01:56:05;;;;;;;1.08;0.40;;;28.40;96.90;;;;;;5036939;28;20033;-70
2021/12/01 01:58:34;;;;;;;2.50;0.50;;;28.50;95.90;;;;;;5036346;28;20400;-65
2021/12/01 02:01:06;;;;;;;2.00;0.60;;;28.20;95.50;;;;;;5038727;28;20024;-65
2021/12/01 02:03:43;;;;;;;1.38;0.50;;;28.20;95.70;;;;;;5015201;28;20113;-66
2021/12/01 02:06:13;;;;;;;2.03;0.40;;;28.10;95.50;;;;;;5017964;28;20029;-68
2021/12/01 02:08:42;;;;;;;1.58;0.47;;;27.90;95.60;;;;;;5016134;28;20393;-66
2021/12/01 02:11:12;;;;;;;0.90;0.30;;;27.80;95.50;;;;;;5017264;28;20458;-67
2021/12/01 02:13:41;;;;;;;1.17;0.32;;;27.80;95.30;;;;;;5015609;28;20282;-67
2021/12/01 02:16:10;;;;;;;1.00;0.30;;;27.80;94.50;;;;;;5018018;28;20082;-67
2021/12/01 02:18:38;;;;;;;1.50;0.65;;;27.90;94.00;;;;;;5016577;28;20025;-66
2021/12/01 02:21:16;;;;;;;1.20;0.52;;;27.80;93.90;;;;;;5022706;28;20032;-67
2021/12/01 02:23:50;;;;;;;1.48;0.40;;;27.90;93.70;;;;;;5019885;28;20021;-68
2021/12/01 02:26:21;;;;;;;1.05;0.30;;;28.30;93.50;;;;;;5021648;28;20470;-67
2021/12/01 02:28:52;;;;;;;1.23;0.40;;;28.40;92.50;;;;;;5017966;28;20049;-65
2021/12/01 02:31:22;;;;;;;1.00;0.35;;;28.50;93.00;;;;;;5011605;28;20028;-65
2021/12/01 02:33:49;;;;;;;1.52;0.40;;;28.60;92.70;;;;;;5004760;28;20467;-67
2021/12/01 02:36:16;;;;;;;2.60;0.40;;;28.60;91.70;;;;;;5001785;28;20034;-66
2021/12/01 02:38:47;;;;;;;1.52;0.30;;;28.50;92.40;;;;;;5015324;28;20539;-68
2021/12/01 02:41:16;;;;;;;0.80;0.30;;;28.40;92.70;;;;;;5021481;28;20056;-67
2021/12/01 02:43:46;;;;;;;1.70;0.43;;;28.40;92.30;;;;;;5020743;28;20104;-67
2021/12/01 02:46:14;;;;;;;1.08;0.45;;;28.40;92.10;;;;;;5022713;28;20489;-75
2021/12/01 02:48:42;;;;;;;1.92;0.40;;;28.70;92.10;;;;;;5031558;28;20040;-69
2021/12/01 02:51:11;;;;;;;2.10;0.40;;;28.70;92.90;;;;;;5030867;28;20024;-75
2021/12/01 02:53:40;;;;;;;2.30;0.60;;;28.90;92.30;;;;;;5040515;28;20029;-69
2021/12/01 02:56:09;;;;;;;1.90;0.60;;;28.80;92.10;;;;;;5040466;28;20040;-66
2021/12/01 02:58:41;;;;;;;2.50;0.57;;;28.70;92.40;;;;;;5021679;28;20110;-69
2021/12/01 03:01:12;;;;;;;;;;;28.90;92.50;;;;;;5021204;28;20433;-74
2021/12/01 03:03:41;;;;;;;4.97;1.25;;;29.00;92.50;;;;;;5021409;28;19968;-72
2021/12/01 03:06:12;;;;;;;2.45;0.40;;;29.50;91.80;;;;;;5026179;28;20759;-72
2021/12/01 03:08:45;;;;;;;1.10;0.40;;;29.60;91.50;;;;;;5034634;28;20021;-65
2021/12/01 03:11:13;;;;;;;0.95;0.40;;;29.30;91.30;;;;;;5041443;28;20020;-73
2021/12/01 03:13:40;;;;;;;2.17;0.57;;;29.10;91.90;;;;;;5040362;28;20021;-65
2021/12/01 03:16:08;;;;;;;1.50;0.30;;;29.40;90.90;;;;;;5039855;28;20040;-66
2021/12/01 03:18:36;;;;;;;1.77;0.40;;;29.70;90.70;;;;;;5029346;28;20032;-66
2021/12/01 03:21:04;;;;;;;2.90;0.40;;;29.90;90.70;;;;;;5004919;28;20040;-66
2021/12/01 03:23:31;;;;;;;0.73;0.30;;;30.20;88.30;;;;;;5016164;28;20079;-67
2021/12/01 03:25:58;;;;;;;0.50;0.20;;;30.30;88.50;;;;;;5019389;28;20704;-68
2021/12/01 03:28:26;;;;;;;1.35;0.40;;;30.50;87.70;;;;;;5020406;28;20049;-68
2021/12/01 03:30:53;;;;;;;1.35;0.40;;;30.90;85.20;;;;;;5017461;28;20374;-68
2021/12/01 03:33:24;;;;;;;0.73;0.30;;;31.20;83.00;;;;;;5021114;28;20092;-66
2021/12/01 03:35:52;;;;;;;1.60;0.60;;;31.60;82.60;;;;;;5019582;28;20083;-67
2021/12/01 03:38:25;;;;;;;1.63;0.30;;;32.10;81.00;;;;;;5020789;28;20033;-68
2021/12/01 03:40:52;;;;;;;0.98;0.40;;;32.30;78.00;;;;;;5017425;28;20421;-68
2021/12/01 03:43:20;;;;;;;2.00;0.30;;;32.30;78.50;;;;;;5020782;28;20076;-69
2021/12/01 03:45:48;;;;;;;0.63;0.30;;;32.70;77.20;;;;;;5020381;28;20083;-67
2021/12/01 03:48:15;;;;;;;0.77;0.30;;;32.90;75.10;;;;;;5018030;28;20703;-66
2021/12/01 03:50:49;;;;;;;0.47;0.30;;;32.70;74.50;;;;;;5019642;28;20501;-67
2021/12/01 03:53:22;;;;;;;1.92;0.50;;;32.70;73.60;;;;;;5019038;28;20126;-67
2021/12/01 03:55:50;;;;;;;1.48;0.30;;;32.30;72.50;;;;;;5019860;28;20061;-66
2021/12/01 03:58:18;;;;;;;1.52;0.40;;;31.60;73.30;;;;;;5018467;28;20425;-68
2021/12/01 04:00:46;;;;;;;0.77;0.65;;;31.60;74.20;;;;;;5019936;28;20030;-67
2021/12/01 04:03:13;;;;;;;0.73;0.30;;;31.40;75.10;;;;;;5017670;28;20025;-65
2021/12/01 04:05:41;;;;;;;4.13;0.30;;;31.80;74.10;;;;;;5019517;28;20021;-70
2021/12/01 04:08:10;;;;;;;1.17;0.32;;;32.00;74.50;;;;;;5017323;28;20017;-69
2021/12/01 04:10:38;;;;;;;0.60;0.20;;;32.00;74.20;;;;;;5016422;28;20018;-68
2021/12/01 04:13:05;;;;;;;1.42;0.50;;;32.00;73.20;;;;;;5018183;28;20052;-69
2021/12/01 04:15:33;;;;;;;2.42;0.55;;;32.00;72.90;;;;;;5019733;28;20123;-65
2021/12/01 04:18:00;;;;;;;1.65;0.30;;;31.60;73.40;;;;;;5017973;28;20022;-68
2021/12/01 04:20:28;;;;;;;1.83;0.40;;;31.70;74.40;;;;;;5020045;28;20518;-73
2021/12/01 04:22:56;;;;;;;3.22;0.20;;;31.70;75.00;;;;;;5019121;28;20104;-67
2021/12/01 04:25:24;;;;;;;0.80;0.30;;;32.00;73.30;;;;;;5018601;28;20070;-67
2021/12/01 04:27:53;;;;;;;0.20;0.15;;;31.10;74.80;;;;;;5019579;28;20041;-66
2021/12/01 04:30:24;;;;;;;2.35;0.40;;;30.20;76.20;;;;;;5015588;28;20037;-66
2021/12/01 04:32:53;;;;;;;1.20;0.30;;;29.70;77.80;;;;;;5019340;28;20029;-66
2021/12/01 04:35:23;;;;;;;1.90;0.30;;;29.30;78.80;;;;;;5017807;28;20391;-68
2021/12/01 04:37:51;;;;;;;1.20;0.30;;;29.00;79.80;;;;;;5019336;28;20026;-68
2021/12/01 04:40:19;;;;;;;0.55;0.30;;;28.80;81.70;;;;;;5017551;28;20025;-67
2021/12/01 04:42:46;;;;;;;1.27;0.30;;;28.80;81.20;;;;;;5017836;28;20057;-66
2021/12/01 04:45:17;;;;;;;3.75;0.40;;;29.20;81.10;;;;;;5010297;28;20035;-68
2021/12/01 04:47:47;;;;;;;1.03;0.20;;;29.60;80.20;;;;;;5013782;28;20075;-67
2021/12/01 04:50:16;;;;;;;0.65;0.20;;;30.10;80.20;;;;;;5012306;28;20079;-66
2021/12/01 04:52:45;;;;;;;0.55;0.20;;;30.80;77.70;;;;;;5014475;28;20029;-68
2021/12/01 04:55:13;;;;;;;1.25;0.40;;;31.30;77.10;;;;;;5011646;28;20059;-67
2021/12/01 04:57:45;;;;;;;0.65;0.30;;;31.80;75.10;;;;;;5013332;28;20749;-65
2021/12/01 05:00:16;;;;;;;1.75;0.45;;;32.10;74.50;;;;;;5011796;28;20040;-66
2021/12/01 05:02:43;;;;;;;1.15;0.77;;;32.40;73.10;;;;;;5014208;28;20029;-66
2021/12/01 05:05:11;;;;;;;0.68;0.30;;;32.50;73.50;;;;;;5011051;28;20041;-67
2021/12/01 05:07:38;;;;;;;1.38;0.30;;;32.80;73.40;;;;;;5014891;28;20104;-64
2021/12/01 05:10:07;;;;;;;0.63;0.25;;;32.90;72.00;;;;;;5011570;28;20037;-64
2021/12/01 05:12:34;;;;;;;1.80;0.32;;;32.50;73.10;;;;;;5014230;28;20088;-65
2021/12/01 05:15:01;;;;;;;1.75;0.20;;;32.40;72.30;;;;;;5013766;28;20048;-64
2021/12/01 05:17:29;;;;;;;0.85;0.30;;;32.00;72.90;;;;;;5012981;28;20040;-67
2021/12/01 05:19:56;;;;;;;2.05;0.38;;;31.60;72.70;;;;;;5013974;28;20052;-66
2021/12/01 05:22:25;;;;;;;0.68;0.20;;;31.40;75.20;;;;;;5011603;28;20025;-67
2021/12/01 05:24:53;;;;;;;1.05;0.20;;;31.70;74.20;;;;;;5013849;28;20088;-69
2021/12/01 05:27:20;;;;;;;1.48;0.40;;;30.90;75.80;;;;;;5011173;28;20024;-68
2021/12/01 05:29:48;;;;;;;0.68;0.30;;;30.80;76.90;;;;;;5014462;28;20030;-65
2021/12/01 05:32:17;;;;;;;0.38;0.20;;;30.70;77.00;;;;;;5004844;28;20025;-65
2021/12/01 05:34:44;;;;;;;0.75;0.30;;;31.00;76.30;;;;;;5008135;28;20045;-68
2021/12/01 05:37:12;;;;;;;1.33;0.30;;;30.80;76.30;;;;;;5007503;28;20039;-67
2021/12/01 05:39:41;;;;;;;0.98;0.20;;;30.90;76.80;;;;;;5008719;28;20024;-66
2021/12/01 05:42:09;;;;;;;2.47;0.32;;;31.00;76.80;;;;;;5008436;28;20041;-66
2021/12/01 05:44:36;;;;;;;1.73;0.40;;;31.30;75.50;;;;;;5007619;28;20040;-67
2021/12/01 05:47:04;;;;;;;3.03;0.28;;;31.40;74.80;;;;;;5009544;28;20032;-71
2021/12/01 05:49:32;;;;;;;0.80;0.22;;;31.40;75.50;;;;;;5006534;28;20114;-65
2021/12/01 05:52:00;;;;;;;2.15;0.20;;;31.30;74.80;;;;;;5008461;28;20037;-67
2021/12/01 05:54:27;;;;;;;1.30;0.40;;;31.00;74.80;;;;;;5006732;28;20021;-68
2021/12/01 05:56:54;;;;;;;2.42;0.30;;;30.60;76.10;;;;;;5009107;28;20104;-67
2021/12/01 05:59:22;;;;;;;1.85;0.20;;;30.00;78.20;;;;;;5006820;28;20025;-66
2021/12/01 06:01:49;;;;;;;3.22;0.50;;;29.60;79.60;;;;;;5007263;28;20029;-69
2021/12/01 06:04:16;;;;;;;5.32;0.40;;;29.50;81.00;;;;;;5006692;28;20486;-69
2021/12/01 06:06:44;;;;;;;1.20;0.63;;;29.50;80.30;;;;;;5006420;28;20078;-63
2021/12/01 06:09:11;;;;;;;0.73;0.20;;;29.20;80.70;;;;;;5007097;28;20498;-68
2021/12/01 06:11:40;;;;;;;0.98;0.30;;;28.80;82.10;;;;;;5006242;28;20029;-66
2021/12/01 06:14:11;;;;;;;0.73;0.30;;;28.30;82.70;;;;;;5008042;28;20037;-69
2021/12/01 06:16:39;;;;;;;0.15;0.15;;;27.90;83.60;;;;;;5007933;28;20045;-69
2021/12/01 06:19:06;;;;;;;2.92;0.30;;;27.70;84.90;;;;;;5008938;28;20938;-66
2021/12/01 06:21:33;;;;;;;1.67;0.40;;;27.80;86.60;;;;;;5005999;28;20025;-65
2021/12/01 06:24:01;;;;;;;1.35;0.30;;;27.70;84.90;;;;;;5005683;28;20025;-70
2021/12/01 06:26:28;;;;;;;0.80;0.30;;;27.80;85.60;;;;;;5007122;28;20030;-67
2021/12/01 06:28:56;;;;;;;1.58;0.43;;;27.50;86.50;;;;;;5009771;28;20040;-69
2021/12/01 06:31:23;;;;;;;1.98;0.32;;;27.30;87.40;;;;;;5008462;28;20124;-67
2021/12/01 06:33:51;;;;;;;0.65;0.30;;;27.30;87.80;;;;;;5013157;28;20112;-68
2021/12/01 06:36:18;;;;;;;3.17;0.50;;;27.00;87.90;;;;;;5015728;28;20030;-68
2021/12/01 06:38:48;;;;;;;0.52;0.30;;;26.80;89.60;;;;;;5015380;28;20025;-72
2021/12/01 06:41:16;;;;;;;3.15;0.32;;;26.70;90.20;;;;;;5017499;28;20592;-66
2021/12/01 06:43:47;;;;;;;2.60;0.40;;;26.50;90.40;;;;;;5016625;28;20033;-71
2021/12/01 06:46:15;;;;;;;1.15;0.30;;;26.60;90.70;;;;;;5016429;28;20037;-72
2021/12/01 06:48:43;;;;;;;2.83;0.38;;;26.70;90.90;;;;;;5013054;28;20028;-67
2021/12/01 06:51:10;;;;;;;0.85;0.30;;;26.90;90.80;;;;;;5018307;28;20089;-75
2021/12/01 06:53:38;;;;;;;1.08;0.20;;;27.00;90.90;;;;;;5015267;28;20103;-71
2021/12/01 06:56:05;;;;;;;1.40;0.30;;;26.90;90.90;;;;;;5016879;28;20038;-74
2021/12/01 06:58:33;;;;;;;1.85;0.40;;;26.70;91.00;;;;;;5017350;28;20029;-78
2021/12/01 07:01:02;;;;;;;2.42;0.47;;;26.60;91.60;;;;;;5017210;28;20029;-72
2021/12/01 07:03:29;;;;;;;1.45;0.40;;;26.40;92.00;;;;;;5016132;28;20171;-78
2021/12/01 07:05:56;;;;;;;3.13;0.40;;;26.20;92.20;;;;;;5022345;28;20021;-71
2021/12/01 07:08:24;;;;;;;1.13;0.30;;;26.00;92.80;;;;;;5021218;28;20018;-69
2021/12/01 07:10:52;;;;;;;2.88;0.60;;;25.90;93.60;;;;;;5020521;28;20053;-71
2021/12/01 07:13:20;;;;;;;1.92;0.50;;;25.70;94.20;;;;;;5020635;28;20030;-75
2021/12/01 07:15:47;;;;;;;2.75;0.43;;;25.80;94.40;;;;;;5018938;28;20047;-79
2021/12/01 07:18:15;;;;;;;1.42;0.40;;;25.70;95.10;;;;;;5021890;28;20108;-80
2021/12/01 07:20:45;;;;;;;2.45;0.40;;;25.80;95.50;;;;;;5019954;28;20022;-71
2021/12/01 07:23:13;;;;;;;0.98;0.60;;;25.60;96.20;;;;;;5021234;28;20053;-76
2021/12/01 07:25:41;;;;;;;0.75;0.30;;;25.50;96.60;;;;;;5020288;28;20029;-73
2021/12/01 07:28:08;;;;;;;1.58;0.40;;;25.40;97.10;;;;;;5021299;28;20426;-74
2021/12/01 07:30:37;;;;;;;1.35;0.40;;;25.30;97.10;;;;;;5019852;28;20647;-75
2021/12/01 07:33:08;;;;;;;4.97;0.40;;;25.00;98.00;;;;;;5021408;28;20342;-70
2021/12/01 07:35:37;;;;;;;7.70;0.90;;;25.00;98.10;;;;;;5021186;28;20235;-70
2021/12/01 07:38:05;;;;;;;0.98;0.35;;;24.90;98.20;;;;;;5019664;28;20749;-66
2021/12/01 07:40:32;;;;;;;1.65;0.50;;;24.90;98.40;;;;;;5021391;28;20032;-69
2021/12/01 07:42:59;;;;;;;2.35;0.40;;;24.80;98.60;;;;;;5020247;28;20053;-72
2021/12/01 07:45:30;;;;;;;2.50;0.68;;;24.80;98.70;;;;;;5021998;28;20474;-70
2021/12/01 07:47:57;;;;;;;1.73;0.45;;;24.70;98.80;;;;;;5020847;28;20070;-67
2021/12/01 07:50:24;;;;;;;0.85;0.40;;;24.70;98.70;;;;;;5020675;28;20022;-66
2021/12/01 07:52:55;;;;;;;1.50;0.52;;;24.60;99.00;;;;;;5016897;28;20207;-70
2021/12/01 07:55:22;;;;;;;0.95;0.43;;;24.50;99.60;;;;;;5021724;28;20021;-67
2021/12/01 07:57:49;;;;;;;1.60;0.60;;;24.40;99.90;;;;;;5019827;28;20075;-69
2021/12/01 08:00:17;;;;;;;2.83;0.60;;;24.30;99.90;;;;;;5021855;28;20014;-69
2021/12/01 08:02:45;;;;;;;1.17;0.50;;;24.30;99.90;;;;;;5020930;28;20078;-66
2021/12/01 08:05:13;;;;;;;4.55;1.50;;;24.30;99.90;;;;;;5021648;28;20382;-67
2021/12/01 08:07:40;;;;;;;1.40;0.40;;;24.10;99.90;;;;;;5019771;28;20018;-67
2021/12/01 08:10:10;;;;;;;3.47;1.23;;;24.20;99.90;;;;;;5020847;28;20422;-68
2021/12/01 08:12:38;;;;;;;3.60;1.38;;;24.10;99.90;;;;;;5019390;28;20025;-67
2021/12/01 08:15:08;;;;;;;1.40;0.50;;;24.00;99.90;;;;;;5019938;28;20033;-68
2021/12/01 08:17:35;;;;;;;1.13;0.60;;;23.90;99.90;;;;;;5001858;28;20037;-69
2021/12/01 08:20:08;;;;;;;0.70;0.40;;;23.80;99.90;;;;;;5020160;28;20096;-69
2021/12/01 08:22:35;;;;;;;1.88;0.40;;;23.80;99.90;;;;;;5019381;28;20057;-67
2021/12/01 08:25:04;;;;;;;4.60;0.50;;;23.70;99.90;;;;;;5019645;28;20470;-68
2021/12/01 08:27:33;;;;;;;4.32;1.75;;;23.60;99.90;;;;;;5020753;28;20033;-70
2021/12/01 08:30:00;;;;;;;1.92;0.50;;;23.60;99.90;;;;;;5019562;28;20052;-74
2021/12/01 08:32:31;;;;;;;1.77;0.57;;;23.50;99.90;;;;;;5023787;28;20101;-64
2021/12/01 08:34:58;;;;;;;0.90;0.52;;;23.50;99.90;;;;;;5020710;28;20025;-68
2021/12/01 08:37:26;;;;;;;1.75;0.50;;;23.40;99.90;;;;;;5024083;28;20032;-65
2021/12/01 08:39:54;;;;;;;1.60;0.63;;;23.30;99.90;;;;;;5021334;28;20092;-67
2021/12/01 08:42:24;;;;;;;1.95;0.50;;;23.30;99.90;;;;;;5022866;28;20028;-69
2021/12/01 08:44:52;;;;;;;1.52;0.75;;;23.30;99.90;;;;;;5019699;28;20023;-68
2021/12/01 08:47:23;;;;;;;2.15;0.30;;;23.20;99.90;;;;;;5020422;28;20615;-65
2021/12/01 08:49:52;;;;;;;2.00;0.70;;;23.10;99.90;;;;;;5018901;28;20083;-66
2021/12/01 08:52:20;;;;;;;2.47;0.68;;;23.10;99.90;;;;;;5019497;28;20235;-65
2021/12/01 08:54:47;;;;;;;3.13;0.77;;;22.90;99.90;;;;;;5018427;28;20028;-68
2021/12/01 08:57:14;;;;;;;2.85;1.25;;;23.00;99.90;;;;;;5017964;28;20039;-71
2021/12/01 08:59:44;;;;;;;3.88;1.10;;;22.90;99.90;;;;;;5019651;28;20544;-65
2021/12/01 09:02:12;;;;;;;2.03;0.57;;;22.90;99.90;;;;;;5019392;28;20056;-72
2021/12/01 09:04:40;;;;;;;2.33;0.50;;;23.00;99.90;;;;;;5019761;28;20026;-70
2021/12/01 09:07:08;;;;;;;3.33;0.55;;;23.00;99.90;;;;;;5019811;28;20690;-65
2021/12/01 09:09:35;;;;;;;2.95;0.70;;;23.00;99.90;;;;;;5019251;28;20024;-66
2021/12/01 09:12:04;;;;;;;2.53;0.60;;;22.90;99.90;;;;;;5018061;28;20199;-66
2021/12/01 09:14:31;;;;;;;2.47;0.52;;;22.90;99.90;;;;;;5017037;28;20113;-66
2021/12/01 09:16:59;;;;;;;2.20;0.60;;;22.90;99.90;;;;;;5017932;28;20037;-67
2021/12/01 09:19:26;;;;;;;2.28;0.90;;;22.90;99.90;;;;;;5018396;28;20017;-67
2021/12/01 09:21:53;;;;;;;2.50;0.60;;;22.90;99.90;;;;;;5018019;28;20028;-68
2021/12/01 09:24:21;;;;;;;2.80;0.98;;;22.90;99.90;;;;;;5017786;28;20013;-68
2021/12/01 09:26:49;;;;;;;2.83;1.45;;;22.80;99.90;;;;;;5018142;28;20021;-72
2021/12/01 09:29:18;;;;;;;2.15;1.23;;;22.70;99.90;;;;;;5018127;28;20543;-68
2021/12/01 09:31:47;;;;;;;3.00;0.68;;;22.60;99.90;;;;;;5018726;28;20047;-67
2021/12/01 09:34:16;;;;;;;1.13;0.63;;;22.60;99.90;;;;;;5018560;28;20031;-67
2021/12/01 09:36:44;;;;;;;2.53;0.60;;;22.60;99.90;;;;;;5017001;28;20171;-65
2021/12/01 09:39:12;;;;;;;2.15;0.70;;;22.50;99.90;;;;;;5018513;28;20017;-66
2021/12/01 09:41:40;;;;;;;2.10;0.65;;;22.40;99.90;;;;;;5017807;28;20025;-65
2021/12/01 09:44:08;;;;;;;3.72;0.63;;;22.40;99.90;;;;;;5017376;28;20224;-70
2021/12/01 09:46:39;;;;;;;1.85;0.60;;;22.30;99.90;;;;;;5017810;28;20486;-68
2021/12/01 09:49:06;;;;;;;3.38;0.73;;;22.30;99.90;;;;;;5017186;28;20021;-67
2021/12/01 09:51:34;;;;;;;1.75;0.60;;;22.30;99.90;;;;;;5017589;28;20037;-66
2021/12/01 09:54:04;;;;;;;1.95;0.60;;;22.30;99.90;;;;;;5017515;28;20025;-70
2021/12/01 09:56:33;;;;;;;1.75;0.70;;;22.30;99.90;;;;;;5016246;28;20069;-67
2021/12/01 09:59:01;;;;;;;3.83;0.60;;;22.20;99.90;;;;;;5017376;28;20147;-67
2021/12/01 10:01:29;;;;;;;4.03;0.88;;;22.20;99.90;;;;;;5017086;28;20131;-65
2021/12/01 10:03:58;;;;;;;2.28;0.80;;;22.20;99.90;;;;;;5017185;28;20050;-68
2021/12/01 10:06:29;;;;;;;1.60;0.80;;;22.20;99.90;;;;;;5017459;28;20123;-66
2021/12/01 10:09:05;;;;;;;3.75;1.25;;;22.10;99.90;;;;;;5015889;28;20409;-66
2021/12/01 10:11:36;;;;;;;3.92;0.70;;;22.10;99.90;;;;;;5015892;28;20088;-66
2021/12/01 10:14:22;;;;;;;2.08;0.52;;;22.00;99.90;;;;;;5016825;28;20483;-69
2021/12/01 10:16:58;;;;;;;1.13;0.55;;;22.00;99.90;;;;;;5018331;28;20061;-70
2021/12/01 10:19:28;;;;;;;2.83;0.88;;;22.00;99.90;;;;;;5017235;28;20021;-70
2021/12/01 10:21:56;;;;;;;2.70;0.55;;;22.00;99.90;;;;;;5017809;28;20061;-66
2021/12/01 10:24:25;;;;;;;1.15;0.45;;;22.00;99.90;;;;;;5018021;28;20111;-69
2021/12/01 10:26:56;;;;;;;2.42;0.60;;;22.00;99.90;;;;;;5017890;28;20107;-67
2021/12/01 10:29:30;;;;;;;3.75;0.60;;;22.00;99.90;;;;;;5016841;28;20515;-68
2021/12/01 10:32:17;;;;;;;1.38;0.40;;;22.00;99.90;;;;;;5017072;28;20041;-68
2021/12/01 10:34:53;;;;;;;2.38;0.57;;;22.00;99.90;;;;;;5016255;28;20084;-65
2021/12/01 10:37:30;;;;;;;2.03;0.70;;;22.00;99.90;;;;;;5015721;28;20083;-67
2021/12/01 10:40:24;;;;;;;1.67;0.65;;;22.00;99.90;;;;;;5016983;28;20041;-67
2021/12/01 10:42:56;;;;;;;1.75;0.80;;;21.90;99.90;;;;;;5019796;28;20032;-69
2021/12/01 10:45:48;;;;;;;1.10;0.60;;;21.90;99.90;;;;;;5019922;28;20369;-69
2021/12/01 10:48:26;;;;;;;;;;;21.90;99.90;;;;;;5020478;28;20041;-68
2021/12/01 10:50:56;;;;;;;2.03;0.60;;;21.80;99.90;;;;;;5020223;28;19932;-69
2021/12/01 10:53:26;;;;;;;3.13;0.70;;;21.80;99.90;;;;;;5025726;28;20021;-66
2021/12/01 10:56:05;;;;;;;2.65;0.60;;;21.90;99.90;;;;;;5023796;28;20033;-66
2021/12/01 10:58:35;;;;;;;2.05;0.60;;;21.80;99.90;;;;;;5020058;28;20374;-69
2021/12/01 11:01:18;;;;;;;2.00;0.70;;;21.80;99.90;;;;;;5019266;28;20461;-69
2021/12/01 11:03:46;;;;;;;2.80;0.82;;;21.80;99.90;;;;;;5019722;28;20100;-70
2021/12/01 11:06:19;;;;;;;1.65;0.60;;;21.80;99.90;;;;;;5018821;28;20029;-67
2021/12/01 11:08:48;;;;;;;1.88;0.70;;;21.70;99.90;;;;;;5019628;28;20022;-72
2021/12/01 11:11:18;;;;;;;1.52;0.68;;;21.70;99.90;;;;;;5019459;28;20017;-69
2021/12/01 11:13:49;;;;;;;3.90;1.13;;;21.70;99.90;;;;;;5019674;28;20025;-66
2021/12/01 11:16:18;;;;;;;1.50;0.70;;;21.60;99.90;;;;;;5018627;28;20099;-69
2021/12/01 11:18:51;;;;;;;3.25;0.55;;;21.60;99.90;;;;;;5019370;28;20026;-69
2021/12/01 11:21:24;;;;;;;2.53;0.57;;;21.60;99.90;;;;;;5017565;28;20034;-66
2021/12/01 11:23:56;;;;;;;2.75;0.60;;;21.60;99.90;;;;;;5019646;28;20079;-69
2021/12/01 11:26:26;;;;;;;3.55;0.73;;;21.60;99.90;;;;;;5018360;28;20382;-67
2021/12/01 11:28:58;;;;;;;6.70;0.60;;;21.60;99.90;;;;;;4921180;28;2832998;-66
2021/12/01 11:31:33;;;;;;;2.00;0.60;;;21.60;99.90;;;;;;5019629;28;20494;-67
2021/12/01 11:34:08;;;;;;;1.67;0.60;;;21.60;99.90;;;;;;5020298;28;20379;-67
2021/12/01 11:36:40;;;;;;;4.03;0.70;;;21.60;99.90;;;;;;5020763;28;20033;-73
2021/12/01 11:39:13;;;;;;;2.63;0.67;;;21.60;99.90;;;;;;5020972;28;20017;-68
2021/12/01 11:41:43;;;;;;;2.45;0.40;;;21.50;99.90;;;;;;5019961;28;20018;-71
2021/12/01 11:44:13;;;;;;;1.70;0.52;;;21.50;99.90;;;;;;5020051;28;20109;-66
2021/12/01 11:46:41;;;;;;;2.30;0.50;;;21.50;99.90;;;;;;5020510;28;20025;-67
2021/12/01 11:49:15;;;;;;;2.10;0.60;;;21.50;99.90;;;;;;5020238;28;20374;-70
2021/12/01 11:52:00;;;;;;;2.65;0.95;;;21.50;99.90;;;;;;5019250;28;20708;-68
2021/12/01 11:54:31;;;;;;;4.50;0.80;;;21.50;99.90;;;;;;5017823;28;20018;-65
2021/12/01 11:57:00;;;;;;;3.30;0.50;;;21.50;99.90;;;;;;5019517;28;20501;-69
2021/12/01 11:59:29;;;;;;;1.75;0.50;;;21.60;99.90;;;;;;5021401;28;20014;-64
2021/12/01 12:02:16;;;;;;;2.40;0.50;;;21.50;99.90;;;;;;5018685;28;20037;-66
2021/12/01 12:04:45;;;;;;;2.55;0.50;;;21.60;99.90;;;;;;5019774;28;20034;-65
2021/12/01 12:07:36;;;;;;;2.67;0.50;;;21.50;99.90;;;;;;5019539;28;20078;-65
2021/12/01 12:10:16;;;;;;;2.83;0.50;;;21.50;99.90;;;;;;5019655;28;20029;-65
2021/12/01 12:13:03;;;;;;;2.22;1.05;;;21.60;99.90;;;;;;5019766;28;20066;-67
2021/12/01 12:15:35;;;;;;;3.17;0.50;;;21.60;99.90;;;;;;5018648;28;20036;-67
2021/12/01 12:18:02;;;;;;;3.95;0.60;;;21.60;99.90;;;;;;5019204;28;20021;-68
2021/12/01 12:20:40;;;;;;;3.30;0.60;;;21.70;99.90;;;;;;5018923;28;20080;-66
2021/12/01 12:23:11;;;;;;;3.55;0.90;;;21.70;99.90;;;;;;5018807;28;20040;-64
2021/12/01 12:26:01;;;;;;;7.57;2.20;;;21.60;99.90;;;;;;5018836;28;20043;-68
2021/12/01 12:28:35;;;;;;;1.50;0.55;;;21.50;99.90;;;;;;5018293;28;20494;-66
2021/12/01 12:31:19;;;;;;;3.20;1.08;;;21.50;99.90;;;;;;5019640;28;20458;-73
2021/12/01 12:33:51;;;;;;;2.55;0.80;;;21.50;99.90;;;;;;5020144;28;20053;-69
2021/12/01 12:36:35;;;;;;;2.58;0.50;;;21.40;99.90;;;;;;5018170;28;20076;-69
2021/12/01 12:39:07;;;;;;;2.20;0.70;;;21.40;99.90;;;;;;5019539;28;20120;-69
2021/12/01 12:42:04;;;;;;;2.67;0.80;;;21.40;99.90;;;;;;5018962;28;20108;-69
2021/12/01 12:44:33;;;;;;;2.95;0.60;;;21.40;99.90;;;;;;5018519;28;20034;-66
2021/12/01 12:47:07;;;;;;;1.30;0.60;;;21.40;99.90;;;;;;5025699;28;20021;-70
2021/12/01 12:50:00;;;;;;;4.10;1.42;;;21.40;99.90;;;;;;5025001;28;20403;-69
2021/12/01 12:52:27;;;;;;;;;;;21.40;99.90;;;;;;5027907;28;20017;-67
2021/12/01 12:55:03;;;;;;;1.90;0.60;;;21.40;99.90;;;;;;5027680;28;20281;-74
2021/12/01 12:57:48;;;;;;;5.18;1.67;;;21.30;99.90;;;;;;5023975;28;20036;-70
2021/12/01 13:00:17;;;;;;;3.80;0.55;;;21.30;99.90;;;;;;5026233;28;21011;-67
2021/12/01 13:02:44;;;;;;;5.07;0.73;;;21.40;99.90;;;;;;5025322;28;20398;-66
2021/12/01 13:05:12;;;;;;;1.20;0.50;;;21.40;99.90;;;;;;5027505;28;20641;-68
2021/12/01 13:07:44;;;;;;;2.10;0.50;;;21.40;99.90;;;;;;5025290;28;20395;-68
2021/12/01 13:10:19;;;;;;;2.08;0.68;;;21.40;99.90;;;;;;5024684;28;20025;-69